Time;durP1;ratioP1;P1;durP2;ratioP2;P2;SDS_P1;SDS_P2;PMS_P1;PMS_P2;Temp;Humidity;BMP_temperature;BMP_pressure;BME280_temperature;BME280_humidity;BME280_pressure;Samples;Min_cycle;Max_cycle;Signal;HPM_P1;HPM_P2
2022/09/03 00:02:38;;;;;;;5.97;3.33;;;20.40;55.30;;;;;;5039272;28;20028;-77
2022/09/03 00:05:26;;;;;;;3.80;2.95;;;20.40;55.40;;;;;;5058309;28;20418;-80
2022/09/03 00:08:03;;;;;;;5.05;3.17;;;20.30;55.30;;;;;;5047082;28;20055;-77
2022/09/03 00:10:43;;;;;;;4.65;3.40;;;20.30;55.30;;;;;;5066409;28;20032;-85
2022/09/03 00:13:14;;;;;;;3.67;3.00;;;20.20;55.30;;;;;;5047644;28;20403;-80
2022/09/03 00:15:41;;;;;;;3.13;2.70;;;20.20;55.40;;;;;;5048102;28;20487;-77
2022/09/03 00:18:17;;;;;;;3.47;3.08;;;20.20;55.50;;;;;;5064526;28;20607;-79
2022/09/03 00:20:51;;;;;;;5.57;3.60;;;20.20;55.80;;;;;;5071817;28;20028;-76
2022/09/03 00:23:36;;;;;;;5.07;3.05;;;20.10;55.70;;;;;;5031794;28;20039;-80
2022/09/03 00:26:13;;;;;;;3.22;2.85;;;20.10;55.80;;;;;;5029059;28;20089;-78
2022/09/03 00:28:55;;;;;;;4.18;2.67;;;20.10;55.90;;;;;;5040737;28;20035;-79
2022/09/03 00:31:46;;;;;;;5.38;3.70;;;20.00;55.90;;;;;;5065754;28;20028;-80
2022/09/03 00:34:36;;;;;;;3.58;2.95;;;20.00;56.10;;;;;;5064969;28;20021;-78
2022/09/03 00:37:04;;;;;;;3.20;3.00;;;19.90;56.10;;;;;;5039717;28;20039;-80
2022/09/03 00:39:30;;;;;;;3.60;3.30;;;19.90;56.00;;;;;;5067237;28;20383;-82
2022/09/03 00:42:22;;;;;;;3.67;3.38;;;19.80;56.00;;;;;;5050530;28;20040;-78
2022/09/03 00:45:06;;;;;;;5.15;3.10;;;19.80;56.30;;;;;;5037461;28;20403;-80
2022/09/03 00:47:50;;;;;;;4.55;3.45;;;19.80;56.30;;;;;;5063404;28;20395;-81
2022/09/03 00:50:44;;;;;;;4.38;3.97;;;19.70;56.30;;;;;;5049041;28;20035;-80
2022/09/03 00:53:32;;;;;;;3.72;3.42;;;19.70;56.50;;;;;;5066487;28;20040;-78
2022/09/03 00:56:18;;;;;;;3.55;3.00;;;19.70;56.50;;;;;;5058779;28;20041;-78
2022/09/03 00:59:02;;;;;;;4.68;3.95;;;19.60;56.50;;;;;;5063785;28;20044;-78
2022/09/03 01:01:44;;;;;;;4.38;3.55;;;19.60;56.60;;;;;;5064380;28;20024;-84
2022/09/03 01:05:11;;;;;;;3.92;3.22;;;19.60;56.80;;;;;;5064272;28;20043;-78
2022/09/03 01:07:37;;;;;;;4.63;3.70;;;19.60;57.00;;;;;;4956198;28;20136;-79
2022/09/03 01:10:10;;;;;;;3.58;3.33;;;19.50;56.60;;;;;;5043956;28;20043;-77
2022/09/03 01:13:07;;;;;;;7.13;4.05;;;19.50;56.80;;;;;;5047020;28;20042;-79
2022/09/03 01:15:57;;;;;;;4.22;3.83;;;19.50;57.00;;;;;;5057698;28;20032;-80
2022/09/03 01:18:41;;;;;;;3.53;3.28;;;19.50;57.00;;;;;;5050905;28;20020;-80
2022/09/03 01:22:08;;;;;;;3.45;3.05;;;19.40;56.90;;;;;;5076334;28;20028;-80
2022/09/03 01:24:46;;;;;;;4.47;3.47;;;19.40;57.10;;;;;;4990682;28;20034;-79
2022/09/03 01:27:39;;;;;;;3.65;3.30;;;19.30;56.70;;;;;;5052116;28;20041;-81
2022/09/03 01:30:17;;;;;;;4.10;3.67;;;19.20;56.90;;;;;;5067536;28;20027;-78
2022/09/03 01:32:51;;;;;;;3.83;3.53;;;19.20;57.00;;;;;;5073007;28;20032;-78
2022/09/03 01:35:26;;;;;;;3.83;3.25;;;19.20;57.00;;;;;;5055931;28;20041;-78
2022/09/03 01:38:10;;;;;;;6.28;3.75;;;19.20;57.20;;;;;;5067012;28;20108;-78
2022/09/03 01:40:52;;;;;;;4.32;3.63;;;19.10;57.20;;;;;;5058173;28;20126;-78
2022/09/03 01:43:27;;;;;;;4.13;3.45;;;19.10;57.30;;;;;;5066234;28;20024;-77
2022/09/03 01:45:59;;;;;;;5.30;3.80;;;19.10;57.50;;;;;;5066183;22;20036;-82
2022/09/03 01:48:25;;;;;;;4.93;3.95;;;19.10;57.50;;;;;;5070611;28;20101;-82
2022/09/03 01:51:15;;;;;;;3.50;3.17;;;19.00;57.40;;;;;;5063119;28;20040;-81
2022/09/03 01:54:05;;;;;;;4.63;4.00;;;19.00;57.70;;;;;;5079443;28;20089;-82
2022/09/03 01:56:40;;;;;;;5.10;3.05;;;19.00;57.80;;;;;;5068703;28;20107;-82
2022/09/03 01:59:32;;;;;;;4.68;3.67;;;19.00;57.70;;;;;;5043549;28;20020;-81
2022/09/03 02:02:19;;;;;;;4.53;4.13;;;19.00;57.90;;;;;;5061419;28;20038;-81
2022/09/03 02:05:08;;;;;;;4.38;3.95;;;18.90;57.80;;;;;;5069750;28;20037;-81
2022/09/03 02:07:59;;;;;;;4.15;3.80;;;18.90;57.90;;;;;;5065028;28;20032;-80
2022/09/03 02:10:39;;;;;;;4.00;3.60;;;18.90;58.00;;;;;;5028390;28;20028;-80
2022/09/03 02:13:14;;;;;;;4.68;3.95;;;18.80;57.80;;;;;;5070573;28;20029;-81
2022/09/03 02:15:46;;;;;;;4.80;4.32;;;18.80;58.00;;;;;;5070714;28;20109;-80
2022/09/03 02:18:17;;;;;;;5.22;4.20;;;18.80;58.00;;;;;;5038214;28;20033;-80
2022/09/03 02:20:45;;;;;;;4.30;3.90;;;18.70;57.90;;;;;;5036523;28;20036;-80
2022/09/03 02:23:11;;;;;;;4.28;3.88;;;18.70;58.00;;;;;;5075955;28;20449;-80
2022/09/03 02:25:41;;;;;;;5.13;4.68;;;18.70;58.10;;;;;;5071244;28;20044;-81
2022/09/03 02:28:08;;;;;;;4.13;3.72;;;18.60;58.60;;;;;;5062380;28;20041;-81
2022/09/03 02:30:34;;;;;;;4.88;4.22;;;18.60;58.10;;;;;;5067116;28;20028;-81
2022/09/03 02:33:00;;;;;;;5.30;4.45;;;18.60;58.20;;;;;;5069760;28;20499;-81
2022/09/03 02:35:27;;;;;;;5.53;4.60;;;18.60;58.30;;;;;;5058115;28;20036;-81
2022/09/03 02:37:53;;;;;;;5.13;4.72;;;18.50;58.20;;;;;;5048580;28;20040;-82
2022/09/03 02:40:19;;;;;;;4.63;4.20;;;18.50;58.30;;;;;;5073557;28;20027;-81
2022/09/03 02:42:45;;;;;;;5.35;4.78;;;18.50;58.40;;;;;;5079983;28;20016;-81
2022/09/03 02:45:26;;;;;;;5.05;4.65;;;18.40;58.40;;;;;;5068195;28;20386;-80
2022/09/03 02:47:55;;;;;;;4.80;4.40;;;18.40;58.60;;;;;;5069641;28;20040;-80
2022/09/03 02:50:23;;;;;;;4.45;4.05;;;18.40;59.10;;;;;;5069222;28;20029;-81
2022/09/03 02:52:49;;;;;;;5.20;4.70;;;18.40;58.60;;;;;;5072690;28;20516;-81
2022/09/03 02:55:15;;;;;;;4.80;4.40;;;18.40;58.70;;;;;;5073101;28;20051;-81
2022/09/03 02:57:41;;;;;;;5.40;4.90;;;18.40;58.80;;;;;;5057624;28;20035;-82
2022/09/03 03:00:08;;;;;;;5.93;4.40;;;18.40;58.80;;;;;;5069060;28;20040;-81
2022/09/03 03:02:34;;;;;;;4.72;4.22;;;18.30;58.70;;;;;;5067342;28;20040;-81
2022/09/03 03:05:00;;;;;;;6.88;4.78;;;18.30;58.80;;;;;;5072698;28;20401;-81
2022/09/03 03:07:30;;;;;;;5.15;4.65;;;18.40;59.00;;;;;;5069277;28;20082;-78
2022/09/03 03:09:57;;;;;;;6.93;5.00;;;18.30;58.90;;;;;;5086681;28;20144;-81
2022/09/03 03:12:24;;;;;;;4.85;4.35;;;18.30;58.90;;;;;;5061075;28;20035;-81
2022/09/03 03:14:49;;;;;;;4.95;4.55;;;18.30;59.00;;;;;;5052901;28;20025;-81
2022/09/03 03:17:15;;;;;;;5.22;4.72;;;18.30;59.10;;;;;;5074696;28;20093;-80
2022/09/03 03:19:41;;;;;;;5.45;4.97;;;18.30;59.20;;;;;;5054622;28;20025;-80
2022/09/03 03:22:07;;;;;;;5.82;5.30;;;18.30;59.20;;;;;;5072328;28;20033;-80
2022/09/03 03:24:33;;;;;;;5.20;4.70;;;18.30;59.20;;;;;;5082738;28;20036;-80
2022/09/03 03:26:59;;;;;;;5.53;4.95;;;18.30;59.30;;;;;;5059898;28;20031;-80
2022/09/03 03:29:25;;;;;;;5.72;5.15;;;18.30;59.40;;;;;;5060889;28;20024;-80
2022/09/03 03:31:51;;;;;;;5.93;5.35;;;18.30;59.40;;;;;;5069664;28;20046;-80
2022/09/03 03:34:17;;;;;;;6.25;5.63;;;18.30;59.50;;;;;;5068950;28;20065;-80
2022/09/03 03:36:43;;;;;;;6.32;5.72;;;18.30;59.60;;;;;;5070602;28;20036;-80
2022/09/03 03:39:08;;;;;;;6.00;5.45;;;18.30;59.60;;;;;;5045322;28;20029;-80
2022/09/03 03:41:36;;;;;;;7.95;6.45;;;18.30;59.70;;;;;;5057838;28;20028;-80
2022/09/03 03:44:05;;;;;;;6.75;6.15;;;18.30;59.80;;;;;;5060341;28;20020;-80
2022/09/03 03:46:37;;;;;;;7.78;7.07;;;18.30;59.90;;;;;;5069004;28;20454;-81
2022/09/03 03:49:05;;;;;;;8.15;7.45;;;18.30;60.00;;;;;;5068395;28;20175;-81
2022/09/03 03:51:32;;;;;;;6.97;6.38;;;18.30;60.00;;;;;;5058925;28;20025;-80
2022/09/03 03:53:58;;;;;;;9.45;8.45;;;18.30;60.10;;;;;;5073369;28;20036;-80
2022/09/03 03:56:25;;;;;;;8.10;7.40;;;18.30;60.20;;;;;;5069220;28;20063;-80
2022/09/03 03:58:52;;;;;;;8.85;8.05;;;18.30;60.30;;;;;;5050426;28;20031;-80
2022/09/03 04:01:24;;;;;;;9.18;8.25;;;18.30;60.40;;;;;;5067688;28;20129;-80
2022/09/03 04:03:58;;;;;;;9.48;8.00;;;18.30;60.50;;;;;;5050939;28;20019;-80
2022/09/03 04:06:25;;;;;;;10.18;9.20;;;18.30;60.50;;;;;;5067735;28;20036;-80
2022/09/03 04:08:51;;;;;;;10.82;9.50;;;18.30;60.60;;;;;;5060290;28;20028;-80
2022/09/03 04:11:19;;;;;;;10.38;9.38;;;18.30;60.70;;;;;;5068580;28;20123;-79
2022/09/03 04:13:46;;;;;;;13.93;9.18;;;18.30;60.80;;;;;;5044464;28;20443;-80
2022/09/03 04:16:18;;;;;;;11.13;10.05;;;18.30;60.80;;;;;;5060964;28;20527;-80
2022/09/03 04:18:44;;;;;;;12.25;11.05;;;18.30;60.90;;;;;;5068110;28;20039;-80
2022/09/03 04:21:14;;;;;;;11.95;10.75;;;18.30;61.00;;;;;;5068777;28;20023;-80
2022/09/03 04:23:42;;;;;;;11.65;10.60;;;18.30;61.10;;;;;;5056275;28;20039;-80
2022/09/03 04:26:10;;;;;;;12.57;11.35;;;18.30;61.20;;;;;;5048804;28;20027;-80
2022/09/03 04:28:37;;;;;;;11.10;10.10;;;18.30;61.20;;;;;;5065384;28;20085;-81
2022/09/03 04:31:05;;;;;;;12.18;10.98;;;18.30;61.30;;;;;;5067532;28;20017;-80
2022/09/03 04:33:32;;;;;;;13.13;11.88;;;18.30;61.30;;;;;;5067527;28;20036;-80
2022/09/03 04:36:07;;;;;;;13.40;11.98;;;18.30;61.40;;;;;;5068937;28;20033;-80
2022/09/03 04:38:35;;;;;;;14.05;12.73;;;18.30;61.50;;;;;;5068701;28;20087;-80
2022/09/03 04:41:01;;;;;;;15.70;12.00;;;18.30;61.60;;;;;;5057181;28;20032;-80
2022/09/03 04:43:28;;;;;;;13.25;11.95;;;18.30;61.70;;;;;;5068745;28;20031;-80
2022/09/03 04:46:04;;;;;;;12.80;11.50;;;18.30;61.70;;;;;;5062100;28;20074;-80
2022/09/03 04:48:31;;;;;;;13.82;12.45;;;18.30;61.90;;;;;;5064019;28;20039;-80
2022/09/03 04:51:09;;;;;;;14.80;13.25;;;18.30;61.90;;;;;;5064651;28;20036;-81
2022/09/03 04:53:37;;;;;;;13.05;11.75;;;18.30;62.10;;;;;;5050335;28;20040;-79
2022/09/03 04:56:18;;;;;;;12.95;11.73;;;18.30;62.00;;;;;;5058160;28;20478;-79
2022/09/03 04:58:44;;;;;;;13.68;12.32;;;18.30;62.30;;;;;;5056858;28;20040;-79
2022/09/03 05:01:14;;;;;;;14.15;12.75;;;18.30;62.10;;;;;;5064271;28;20025;-79
2022/09/03 05:03:40;;;;;;;12.77;11.48;;;18.30;62.20;;;;;;5069584;28;20100;-79
2022/09/03 05:06:08;;;;;;;14.43;13.00;;;18.40;62.40;;;;;;5062209;28;20062;-79
2022/09/03 05:08:35;;;;;;;14.23;12.82;;;18.40;62.50;;;;;;5061455;28;20041;-79
2022/09/03 05:11:03;;;;;;;15.05;13.55;;;18.40;62.50;;;;;;5035371;28;20029;-79
2022/09/03 05:13:30;;;;;;;16.92;15.25;;;18.40;62.60;;;;;;5032002;28;20519;-80
2022/09/03 05:16:00;;;;;;;14.52;13.13;;;18.40;62.60;;;;;;5065732;28;20044;-81
2022/09/03 05:18:28;;;;;;;15.38;13.88;;;18.40;62.80;;;;;;5054732;28;20077;-81
2022/09/03 05:20:58;;;;;;;15.65;14.25;;;18.40;62.80;;;;;;5079211;28;20026;-81
2022/09/03 05:23:25;;;;;;;15.00;13.55;;;18.40;62.90;;;;;;5072974;28;20503;-81
2022/09/03 05:25:57;;;;;;;15.48;14.07;;;18.30;62.70;;;;;;5068882;28;20356;-80
2022/09/03 05:28:26;;;;;;;15.40;13.82;;;18.40;63.00;;;;;;5039213;28;20152;-81
2022/09/03 05:31:13;;;;;;;15.98;14.50;;;18.40;63.00;;;;;;5060336;28;20515;-80
2022/09/03 05:33:43;;;;;;;17.23;15.50;;;18.40;63.30;;;;;;5056801;28;20029;-80
2022/09/03 05:36:11;;;;;;;17.00;15.20;;;18.40;63.10;;;;;;5069824;28;20089;-79
2022/09/03 05:38:37;;;;;;;17.98;16.33;;;18.40;63.20;;;;;;5057381;28;20433;-81
2022/09/03 05:41:06;;;;;;;18.08;16.27;;;18.40;63.30;;;;;;5037999;28;20032;-81
2022/09/03 05:43:32;;;;;;;17.77;16.08;;;18.40;63.60;;;;;;5032212;28;20462;-80
2022/09/03 05:46:08;;;;;;;17.58;15.90;;;18.40;63.50;;;;;;5057647;28;20040;-80
2022/09/03 05:48:35;;;;;;;18.30;16.40;;;18.40;63.70;;;;;;5012827;28;20607;-80
2022/09/03 05:51:03;;;;;;;18.60;16.27;;;18.40;63.70;;;;;;5070091;28;20036;-79
2022/09/03 05:53:31;;;;;;;18.35;16.10;;;18.40;63.70;;;;;;5072482;28;20024;-80
2022/09/03 05:55:59;;;;;;;17.50;15.75;;;18.50;63.90;;;;;;5078938;28;20415;-79
2022/09/03 05:58:33;;;;;;;17.98;16.20;;;18.50;64.00;;;;;;5052328;28;20047;-80
2022/09/03 06:00:59;;;;;;;21.05;18.13;;;18.50;64.10;;;;;;5064430;28;20073;-81
2022/09/03 06:03:26;;;;;;;17.70;15.90;;;18.50;64.10;;;;;;5041150;28;20232;-81
2022/09/03 06:05:53;;;;;;;17.02;15.43;;;18.60;64.40;;;;;;5059215;28;20392;-80
2022/09/03 06:08:20;;;;;;;17.27;15.57;;;18.60;64.70;;;;;;5056413;28;20486;-79
2022/09/03 06:10:46;;;;;;;17.65;15.85;;;18.70;64.90;;;;;;5050829;28;20039;-79
2022/09/03 06:13:12;;;;;;;17.90;16.10;;;18.70;65.10;;;;;;5040314;28;20020;-80
2022/09/03 06:15:39;;;;;;;18.17;15.80;;;18.80;65.30;;;;;;5057879;28;20224;-82
2022/09/03 06:18:05;;;;;;;19.75;17.58;;;18.90;65.60;;;;;;5031743;28;20025;-80
2022/09/03 06:20:31;;;;;;;18.27;15.95;;;18.90;65.90;;;;;;5064292;28;20040;-84
2022/09/03 06:22:57;;;;;;;20.30;17.83;;;19.00;66.40;;;;;;5063555;28;20497;-83
2022/09/03 06:25:23;;;;;;;20.77;18.73;;;19.10;66.80;;;;;;5069822;28;20065;-85
2022/09/03 06:27:49;;;;;;;21.77;19.48;;;19.20;66.90;;;;;;5063512;28;20039;-86
2022/09/03 06:30:16;;;;;;;20.00;17.92;;;19.30;67.00;;;;;;5041949;28;20031;-83
2022/09/03 06:32:44;;;;;;;22.77;19.60;;;19.30;66.90;;;;;;5040860;28;20040;-83
2022/09/03 06:35:10;;;;;;;18.63;16.88;;;19.40;67.50;;;;;;5059761;28;20392;-87
2022/09/03 06:37:39;;;;;;;19.83;17.83;;;19.40;66.90;;;;;;5058585;28;20036;-88
2022/09/03 06:40:08;;;;;;;18.45;16.38;;;19.50;67.00;;;;;;5067999;28;20098;-82
2022/09/03 06:42:33;;;;;;;18.67;16.88;;;19.60;67.00;;;;;;5033925;28;20032;-83
2022/09/03 06:45:00;;;;;;;17.83;16.10;;;19.70;67.20;;;;;;5063695;28;20032;-83
2022/09/03 06:47:27;;;;;;;18.50;16.70;;;19.80;67.30;;;;;;5052330;28;20130;-86
2022/09/03 06:49:53;;;;;;;17.85;16.00;;;19.80;67.30;;;;;;5039736;28;20033;-83
2022/09/03 06:52:19;;;;;;;16.10;14.45;;;19.90;67.40;;;;;;5051264;28;20023;-87
2022/09/03 06:54:45;;;;;;;17.35;15.32;;;19.90;67.40;;;;;;5055874;28;20039;-87
2022/09/03 06:57:10;;;;;;;15.82;14.32;;;20.00;67.60;;;;;;5077253;28;20699;-84
2022/09/03 06:59:36;;;;;;;15.55;14.02;;;20.00;67.60;;;;;;5075020;28;20036;-85
2022/09/03 07:02:02;;;;;;;17.23;15.55;;;20.10;67.80;;;;;;5043968;28;20131;-85
2022/09/03 07:04:28;;;;;;;16.67;15.00;;;20.10;67.90;;;;;;5048340;28;20028;-82
2022/09/03 07:06:54;;;;;;;18.23;15.07;;;20.10;68.00;;;;;;5049294;28;20391;-85
2022/09/03 07:09:20;;;;;;;16.15;14.30;;;20.10;68.10;;;;;;5048677;28;20479;-84
2022/09/03 07:11:46;;;;;;;17.15;15.40;;;20.20;68.30;;;;;;5069908;28;20529;-84
2022/09/03 07:14:13;;;;;;;17.30;15.70;;;20.20;68.40;;;;;;5059786;28;20025;-84
2022/09/03 07:16:40;;;;;;;17.88;16.17;;;20.20;68.40;;;;;;5028539;28;20470;-83
2022/09/03 07:19:08;;;;;;;16.73;15.20;;;20.30;68.60;;;;;;5057098;28;20029;-86
2022/09/03 07:21:40;;;;;;;15.85;14.35;;;20.20;68.50;;;;;;5066596;28;20075;-85
2022/09/03 07:24:07;;;;;;;15.18;13.68;;;20.30;68.80;;;;;;5069203;28;20063;-87
2022/09/03 07:26:38;;;;;;;15.80;14.20;;;20.30;68.80;;;;;;5068915;28;20050;-88
2022/09/03 07:29:10;;;;;;;14.70;13.20;;;20.30;68.90;;;;;;5076041;28;20017;-87
2022/09/03 07:31:39;;;;;;;14.93;13.13;;;20.30;68.80;;;;;;5061855;28;20040;-87
2022/09/03 07:34:08;;;;;;;15.40;13.90;;;20.30;68.80;;;;;;5064895;28;20036;-86
2022/09/03 07:36:44;;;;;;;14.25;12.85;;;20.30;68.90;;;;;;5042336;28;20438;-86
2022/09/03 07:39:11;;;;;;;14.77;13.27;;;20.30;68.90;;;;;;5041136;28;20020;-91
2022/09/03 07:41:37;;;;;;;14.88;13.45;;;20.30;68.90;;;;;;5047785;28;20041;-83
2022/09/03 07:44:06;;;;;;;16.75;14.48;;;20.30;68.90;;;;;;5047504;28;20461;-82
2022/09/03 07:46:35;;;;;;;14.55;13.27;;;20.30;68.90;;;;;;5059141;28;20511;-80
2022/09/03 07:49:01;;;;;;;13.63;12.32;;;20.30;69.00;;;;;;5022878;28;20024;-81
2022/09/03 07:51:29;;;;;;;13.93;12.65;;;20.30;69.00;;;;;;5035335;28;20029;-82
2022/09/03 07:53:58;;;;;;;13.48;12.20;;;20.20;68.90;;;;;;5025122;28;20097;-88
2022/09/03 07:56:25;;;;;;;12.77;11.57;;;20.30;69.10;;;;;;5047043;28;20040;-86
2022/09/03 07:58:54;;;;;;;13.32;12.02;;;20.30;69.20;;;;;;5056771;28;20025;-84
2022/09/03 08:01:21;;;;;;;14.82;13.40;;;20.30;69.30;;;;;;5059509;28;20148;-85
2022/09/03 08:03:52;;;;;;;14.43;13.20;;;20.20;69.10;;;;;;5056841;28;20025;-87
2022/09/03 08:06:20;;;;;;;14.50;13.00;;;20.30;69.30;;;;;;5028883;28;20025;-81
2022/09/03 08:08:47;;;;;;;13.60;12.25;;;20.30;69.30;;;;;;5047504;28;20551;-82
2022/09/03 08:11:15;;;;;;;13.93;12.40;;;20.40;69.40;;;;;;5046972;28;20609;-81
2022/09/03 08:13:47;;;;;;;12.50;11.27;;;20.40;69.40;;;;;;5045439;28;20841;-82
2022/09/03 08:16:15;;;;;;;12.80;11.67;;;20.50;69.60;;;;;;5065171;28;20029;-80
2022/09/03 08:18:41;;;;;;;11.80;10.70;;;20.60;69.60;;;;;;5056511;28;20029;-79
2022/09/03 08:21:15;;;;;;;12.07;10.95;;;20.80;69.80;;;;;;5061796;28;20038;-80
2022/09/03 08:23:46;;;;;;;11.85;10.63;;;20.90;69.70;;;;;;5047948;28;20028;-80
2022/09/03 08:26:14;;;;;;;11.40;9.82;;;21.00;69.60;;;;;;5063166;28;20028;-80
2022/09/03 08:28:42;;;;;;;12.25;10.98;;;21.10;69.50;;;;;;5068217;28;20028;-80
2022/09/03 08:31:12;;;;;;;11.95;10.75;;;21.20;70.00;;;;;;5052911;28;20036;-80
2022/09/03 08:33:47;;;;;;;10.93;9.80;;;21.20;69.30;;;;;;5043359;28;20028;-80
2022/09/03 08:36:21;;;;;;;10.93;9.85;;;21.30;69.30;;;;;;5062502;28;20368;-80
2022/09/03 08:38:49;;;;;;;12.30;11.10;;;21.40;69.20;;;;;;5043850;28;20020;-80
2022/09/03 08:41:21;;;;;;;11.15;10.15;;;21.50;69.10;;;;;;5063227;28;20468;-81
2022/09/03 08:44:04;;;;;;;9.80;8.95;;;21.60;69.10;;;;;;5062922;28;20063;-81
2022/09/03 08:46:47;;;;;;;11.05;9.80;;;21.70;69.10;;;;;;5058699;28;20453;-80
2022/09/03 08:49:31;;;;;;;11.75;10.02;;;21.80;69.10;;;;;;5050211;28;20024;-82
2022/09/03 08:52:01;;;;;;;10.88;9.82;;;21.90;69.50;;;;;;5031989;28;20041;-82
2022/09/03 08:54:31;;;;;;;11.57;10.38;;;21.90;68.70;;;;;;5043778;28;20033;-82
2022/09/03 08:57:01;;;;;;;10.90;9.90;;;22.00;68.60;;;;;;5044382;28;20044;-82
2022/09/03 08:59:29;;;;;;;11.23;10.20;;;22.00;68.60;;;;;;5057036;28;20085;-84
2022/09/03 09:02:16;;;;;;;10.55;9.45;;;22.10;68.60;;;;;;5019607;28;20040;-80
2022/09/03 09:04:54;;;;;;;11.23;10.18;;;22.20;68.60;;;;;;5062488;28;20039;-86
2022/09/03 09:07:34;;;;;;;10.98;9.88;;;22.20;68.30;;;;;;5064204;28;20028;-80
2022/09/03 09:10:06;;;;;;;12.20;10.95;;;22.20;68.10;;;;;;5061410;28;20038;-80
2022/09/03 09:12:45;;;;;;;12.02;10.93;;;22.30;68.10;;;;;;5072203;28;20050;-81
2022/09/03 09:15:19;;;;;;;14.45;11.60;;;22.40;68.10;;;;;;5024404;28;20076;-82
2022/09/03 09:18:06;;;;;;;12.07;10.77;;;22.40;67.90;;;;;;5026429;28;20055;-84
2022/09/03 09:20:58;;;;;;;10.75;9.65;;;22.50;67.80;;;;;;5062709;28;20051;-81
2022/09/03 09:23:34;;;;;;;9.80;8.93;;;22.60;67.70;;;;;;5061289;28;20031;-82
2022/09/03 09:26:05;;;;;;;10.68;9.70;;;22.80;67.60;;;;;;5031758;28;20543;-81
2022/09/03 09:28:36;;;;;;;10.48;9.40;;;22.90;67.30;;;;;;5062119;28;20399;-81
2022/09/03 09:31:06;;;;;;;9.82;8.93;;;23.10;67.20;;;;;;5063198;28;20494;-82
2022/09/03 09:33:33;;;;;;;11.27;9.40;;;23.30;67.00;;;;;;5055848;28;20158;-90
2022/09/03 09:36:03;;;;;;;9.18;8.38;;;23.60;67.00;;;;;;5029509;28;20428;-82
2022/09/03 09:38:37;;;;;;;9.77;8.63;;;23.80;66.80;;;;;;5024116;28;20039;-84
2022/09/03 09:41:20;;;;;;;9.90;9.00;;;24.00;66.60;;;;;;5057576;28;20033;-85
2022/09/03 09:43:47;;;;;;;8.98;8.00;;;24.30;66.50;;;;;;5027809;28;20520;-84
2022/09/03 09:46:18;;;;;;;9.20;8.18;;;24.50;66.20;;;;;;5041745;28;20067;-85
2022/09/03 09:48:56;;;;;;;8.40;7.68;;;24.80;66.20;;;;;;5055625;28;20021;-82
2022/09/03 09:51:32;;;;;;;8.68;7.63;;;25.00;65.80;;;;;;5039613;28;20032;-85
2022/09/03 09:54:11;;;;;;;8.93;7.78;;;25.20;65.40;;;;;;5062192;28;20021;-83
2022/09/03 09:56:37;;;;;;;8.70;7.35;;;25.50;64.90;;;;;;5058882;28;20056;-84
2022/09/03 09:59:03;;;;;;;10.25;7.32;;;25.60;64.50;;;;;;5043914;28;20447;-89
2022/09/03 10:01:30;;;;;;;7.90;7.10;;;25.80;64.20;;;;;;5075623;28;20025;-83
2022/09/03 10:04:08;;;;;;;8.23;7.40;;;25.90;63.80;;;;;;5058771;28;20017;-81
2022/09/03 10:06:52;;;;;;;8.40;7.60;;;26.00;63.30;;;;;;5060236;28;20395;-83
2022/09/03 10:09:27;;;;;;;8.85;7.25;;;26.20;63.10;;;;;;5028992;28;20070;-82
2022/09/03 10:12:06;;;;;;;7.40;6.60;;;26.30;62.60;;;;;;5067433;28;20266;-83
2022/09/03 10:14:49;;;;;;;10.35;6.32;;;26.40;62.30;;;;;;5048322;28;20203;-86
2022/09/03 10:17:30;;;;;;;6.50;5.90;;;26.60;61.90;;;;;;5066333;28;20033;-86
2022/09/03 10:20:26;;;;;;;6.95;6.15;;;26.70;61.60;;;;;;5067433;28;20617;-85
2022/09/03 10:23:07;;;;;;;6.32;5.72;;;26.90;61.20;;;;;;5057005;28;20048;-86
2022/09/03 10:25:56;;;;;;;5.45;4.95;;;27.00;60.80;;;;;;5053408;28;20498;-84
2022/09/03 10:28:27;;;;;;;6.13;5.53;;;27.10;60.50;;;;;;5066166;28;20495;-84
2022/09/03 10:31:14;;;;;;;7.75;6.25;;;27.30;60.20;;;;;;5067636;28;20028;-84
2022/09/03 10:34:03;;;;;;;5.63;5.03;;;27.40;59.80;;;;;;5061710;28;20062;-83
2022/09/03 10:36:34;;;;;;;6.38;5.78;;;27.50;59.20;;;;;;5023648;28;20318;-84
2022/09/03 10:39:21;;;;;;;4.80;4.40;;;27.70;59.00;;;;;;5068039;28;20196;-82
2022/09/03 10:42:20;;;;;;;7.22;4.85;;;27.80;58.10;;;;;;5067576;28;20039;-85
2022/09/03 10:45:20;;;;;;;5.10;4.65;;;27.90;57.90;;;;;;5061903;28;20484;-86
2022/09/03 10:47:58;;;;;;;5.22;4.63;;;28.00;57.60;;;;;;5040498;28;20109;-86
2022/09/03 10:50:47;;;;;;;5.32;4.78;;;28.10;57.40;;;;;;5020099;28;20021;-84
2022/09/03 10:53:42;;;;;;;4.68;4.28;;;28.20;56.70;;;;;;5067441;28;20383;-85
2022/09/03 10:56:33;;;;;;;5.18;4.03;;;28.20;56.30;;;;;;5031450;28;20041;-84
2022/09/03 10:59:20;;;;;;;6.10;4.38;;;28.30;56.10;;;;;;5049838;28;20346;-85
2022/09/03 11:02:20;;;;;;;175.10;38.55;;;28.40;56.00;;;;;;5066611;28;20029;-86
2022/09/03 11:04:48;;;;;;;168.48;44.03;;;28.50;55.40;;;;;;5070042;28;20024;-86
2022/09/03 11:07:18;;;;;;;237.63;63.33;;;28.60;56.00;;;;;;5052759;28;20517;-82
2022/09/03 11:10:10;;;;;;;238.82;62.00;;;28.70;55.00;;;;;;5068358;28;20031;-84
2022/09/03 11:12:41;;;;;;;237.35;63.95;;;28.80;54.40;;;;;;5080986;28;20025;-83
2022/09/03 11:15:24;;;;;;;182.55;54.13;;;28.90;54.50;;;;;;5064613;28;20717;-82
2022/09/03 11:18:02;;;;;;;;;;;28.90;54.00;;;;;;5065136;28;20040;-83
2022/09/03 11:20:29;;;;;;;147.30;40.38;;;29.00;54.20;;;;;;5047592;28;19923;-82
2022/09/03 11:23:00;;;;;;;114.93;34.20;;;29.00;54.20;;;;;;5067899;28;20020;-82
2022/09/03 11:25:33;;;;;;;109.80;34.30;;;29.00;53.80;;;;;;5069771;28;20281;-85
2022/09/03 11:28:22;;;;;;;93.10;28.85;;;28.90;53.60;;;;;;5056054;28;20031;-84
2022/09/03 11:31:13;;;;;;;72.53;24.70;;;28.80;53.50;;;;;;5034431;28;20028;-82
2022/09/03 11:34:36;;;;;;;63.22;25.33;;;28.80;53.40;;;;;;5059740;28;20025;-83
2022/09/03 11:37:24;;;;;;;55.58;20.73;;;28.70;53.50;;;;;;4955157;28;20050;-83
2022/09/03 11:40:06;;;;;;;36.75;17.20;;;28.60;53.60;;;;;;5042339;28;20059;-85
2022/09/03 11:42:41;;;;;;;41.40;14.55;;;28.60;53.70;;;;;;5047605;28;20040;-85
2022/09/03 11:45:43;;;;;;;29.83;12.77;;;28.60;53.70;;;;;;5046039;28;20522;-84
2022/09/03 11:48:33;;;;;;;28.45;11.70;;;28.50;53.40;;;;;;5074862;28;20043;-83
2022/09/03 11:50:59;;;;;;;23.60;10.02;;;28.50;53.40;;;;;;5030057;28;20078;-86
2022/09/03 11:53:33;;;;;;;20.88;9.40;;;28.40;53.60;;;;;;5065271;28;20028;-83
2022/09/03 11:56:03;;;;;;;22.02;9.32;;;28.40;53.60;;;;;;5064753;28;20044;-81
2022/09/03 11:58:36;;;;;;;20.00;8.15;;;28.30;53.50;;;;;;5055008;28;20036;-83
2022/09/03 12:01:04;;;;;;;;;;;28.20;53.50;;;;;;5058107;28;20031;-83
2022/09/03 12:03:41;;;;;;;20.02;9.20;;;28.10;53.80;;;;;;5063075;28;19912;-83
2022/09/03 12:06:38;;;;;;;22.00;11.38;;;28.00;53.80;;;;;;5066418;28;20484;-84
2022/09/03 12:09:08;;;;;;;27.27;15.98;;;28.00;53.80;;;;;;5075855;28;20020;-84
2022/09/03 12:11:45;;;;;;;31.38;19.73;;;27.90;54.00;;;;;;5049968;28;20032;-87
2022/09/03 12:14:43;;;;;;;28.67;19.77;;;27.90;54.00;;;;;;5067135;28;20477;-84
2022/09/03 12:17:27;;;;;;;28.38;19.77;;;27.90;53.90;;;;;;5059129;28;20039;-85
2022/09/03 12:19:56;;;;;;;28.25;18.75;;;27.90;54.00;;;;;;5056133;28;20111;-83
2022/09/03 12:22:27;;;;;;;26.88;18.13;;;27.90;54.00;;;;;;5071658;28;20032;-89
2022/09/03 12:24:54;;;;;;;26.33;17.58;;;27.90;54.00;;;;;;5042799;28;20040;-82
2022/09/03 12:27:25;;;;;;;21.65;16.52;;;27.90;54.00;;;;;;5060124;28;20473;-82
2022/09/03 12:29:56;;;;;;;22.88;15.93;;;27.90;53.90;;;;;;5041297;28;20029;-81
2022/09/03 12:32:23;;;;;;;23.50;15.60;;;27.90;54.00;;;;;;5042491;28;20502;-80
2022/09/03 12:34:49;;;;;;;21.42;14.73;;;28.00;54.00;;;;;;5054582;28;20032;-82
2022/09/03 12:37:23;;;;;;;17.48;13.75;;;28.00;53.90;;;;;;5045006;28;20036;-81
2022/09/03 12:39:51;;;;;;;20.40;13.63;;;28.20;53.80;;;;;;5064637;28;20023;-80
2022/09/03 12:42:27;;;;;;;17.70;13.65;;;28.30;53.50;;;;;;5045889;28;20544;-80
2022/09/03 12:44:53;;;;;;;15.25;11.98;;;28.50;53.40;;;;;;5064687;28;20299;-81
2022/09/03 12:47:23;;;;;;;18.40;13.27;;;28.60;53.20;;;;;;5063609;28;20359;-81
2022/09/03 12:49:55;;;;;;;15.13;11.27;;;28.70;53.10;;;;;;5028239;28;20036;-81
2022/09/03 12:52:33;;;;;;;14.32;11.85;;;28.70;52.90;;;;;;5064406;28;20041;-81
2022/09/03 12:55:29;;;;;;;15.65;11.13;;;28.80;52.80;;;;;;5061116;28;20037;-80
2022/09/03 12:58:16;;;;;;;15.10;11.00;;;28.80;52.50;;;;;;5053580;28;20221;-81
2022/09/03 13:01:08;;;;;;;16.50;12.00;;;29.00;52.50;;;;;;5057691;28;20678;-86
2022/09/03 13:03:53;;;;;;;14.07;10.37;;;29.00;52.30;;;;;;5052352;28;20077;-87
2022/09/03 13:06:24;;;;;;;12.27;9.57;;;29.00;52.10;;;;;;5059751;28;20063;-85
2022/09/03 13:08:56;;;;;;;13.02;9.88;;;29.10;52.20;;;;;;5057195;28;20191;-86
2022/09/03 13:11:23;;;;;;;11.68;8.90;;;29.10;52.10;;;;;;5039826;28;20433;-86